Time;durP1;ratioP1;P1;durP2;ratioP2;P2;SDS_P1;SDS_P2;PMS_P1;PMS_P2;Temp;Humidity;BMP_temperature;BMP_pressure;BME280_temperature;BME280_humidity;BME280_pressure;Samples;Min_cycle;Max_cycle;Signal;HPM_P1;HPM_P2
2022/11/03 00:01:56;;;;;;;5.47;2.10;;;;;;;-145.14;100.00;70583.66;5010643;28;20201;-89
2022/11/03 00:04:22;;;;;;;12.07;2.80;;;;;;;-145.14;100.00;70583.66;5030203;28;20188;-88
2022/11/03 00:06:51;;;;;;;15.13;2.53;;;;;;;-145.14;100.00;70583.66;5001115;28;20271;-89
2022/11/03 00:09:18;;;;;;;9.83;2.10;;;;;;;-145.14;100.00;70583.66;5032385;28;20176;-88
2022/11/03 00:11:49;;;;;;;8.43;2.40;;;;;;;-145.14;100.00;70583.66;4999293;28;20964;-88
2022/11/03 00:14:15;;;;;;;12.73;2.60;;;;;;;-145.14;100.00;70583.66;5024057;28;20434;-88
2022/11/03 00:16:40;;;;;;;7.37;2.50;;;;;;;-145.14;100.00;70583.66;5015328;28;20484;-89
2022/11/03 00:19:07;;;;;;;11.00;1.93;;;;;;;-145.14;100.00;70583.66;5004890;28;20291;-88
2022/11/03 00:21:33;;;;;;;13.50;2.87;;;;;;;-145.14;100.00;70583.66;5003614;28;20200;-88
2022/11/03 00:24:01;;;;;;;7.70;2.23;;;;;;;-145.14;100.00;70583.66;5010232;28;20475;-88
2022/11/03 00:26:28;;;;;;;4.57;1.90;;;;;;;-145.14;100.00;70583.66;5002765;28;20196;-89
2022/11/03 00:29:01;;;;;;;9.83;2.10;;;;;;;-145.14;100.00;70583.66;5026973;28;20435;-87
2022/11/03 00:31:31;;;;;;;9.77;2.80;;;;;;;-145.14;100.00;70583.66;5019224;28;20485;-90
2022/11/03 00:33:58;;;;;;;11.40;2.50;;;;;;;-145.14;100.00;70583.66;4999963;28;20496;-88
2022/11/03 00:36:29;;;;;;;12.60;2.77;;;;;;;-145.14;100.00;70583.66;5007744;28;20514;-89
2022/11/03 00:38:55;;;;;;;12.20;2.67;;;;;;;-145.14;100.00;70583.66;5001870;28;20445;-90
2022/11/03 00:41:22;;;;;;;14.80;3.30;;;;;;;-145.14;100.00;70583.66;5004097;28;20458;-88
2022/11/03 00:43:48;;;;;;;11.83;2.60;;;;;;;-145.14;100.00;70583.66;5021504;28;20531;-89
2022/11/03 00:46:14;;;;;;;17.60;2.80;;;;;;;-145.14;100.00;70583.66;5031597;28;20463;-90
2022/11/03 00:48:40;;;;;;;11.90;2.80;;;;;;;-145.14;100.00;70583.66;5031998;28;20505;-89
2022/11/03 00:51:07;;;;;;;9.60;2.50;;;;;;;-145.14;100.00;70583.66;5032563;28;20240;-88
2022/11/03 00:53:37;;;;;;;11.57;3.00;;;;;;;-145.14;100.00;70583.66;5017250;28;20437;-86
2022/11/03 00:56:06;;;;;;;10.30;2.83;;;;;;;-145.14;100.00;70583.66;5021760;28;20488;-87
2022/11/03 00:58:32;;;;;;;7.23;2.20;;;;;;;-145.14;100.00;70583.66;5028332;28;20427;-89
2022/11/03 01:01:02;;;;;;;9.63;2.53;;;;;;;-145.14;100.00;70583.66;5027175;28;20467;-87
2022/11/03 01:03:27;;;;;;;11.07;2.20;;;;;;;-145.14;100.00;70583.66;5030268;28;20441;-86
2022/11/03 01:08:37;;;;;;;8.97;2.50;;;;;;;-145.14;100.00;70583.66;5028532;28;20734;-88
2022/11/03 01:13:56;;;;;;;19.00;3.20;;;;;;;-145.14;100.00;70583.66;5031386;28;20671;-88
2022/11/03 01:16:21;;;;;;;9.27;2.20;;;;;;;-145.14;100.00;70583.66;5022140;28;20446;-88
2022/11/03 01:18:47;;;;;;;8.93;2.53;;;;;;;-145.14;100.00;70583.66;5026057;28;20186;-88
2022/11/03 01:21:12;;;;;;;8.63;2.23;;;;;;;-145.14;100.00;70583.66;4997363;28;20219;-88
2022/11/03 01:23:38;;;;;;;10.37;2.63;;;;;;;-145.14;100.00;70583.66;5017550;28;20400;-89
2022/11/03 01:26:08;;;;;;;10.23;2.70;;;;;;;-145.14;100.00;70583.66;5022018;28;20238;-88
2022/11/03 01:28:38;;;;;;;12.23;2.30;;;;;;;-145.14;100.00;70583.66;5018511;28;22261;-86
2022/11/03 01:31:12;;;;;;;12.43;2.70;;;;;;;-145.14;100.00;70583.66;5024802;28;20514;-84
2022/11/03 01:33:37;;;;;;;14.30;2.30;;;;;;;-145.14;100.00;70583.66;4999490;28;20444;-88
2022/11/03 01:36:03;;;;;;;12.00;2.87;;;;;;;-145.14;100.00;70583.66;5026834;28;20448;-87
2022/11/03 01:38:33;;;;;;;11.47;2.40;;;;;;;-145.14;100.00;70583.66;5034284;28;20543;-89
2022/11/03 01:40:59;;;;;;;14.17;3.20;;;;;;;-145.14;100.00;70583.66;5007020;28;20200;-87
2022/11/03 01:43:27;;;;;;;12.53;2.57;;;;;;;-145.14;100.00;70583.66;5006878;28;20582;-87
2022/11/03 01:46:09;;;;;;;9.23;2.30;;;;;;;-145.14;100.00;70583.66;5016856;28;20985;-88
2022/11/03 01:48:40;;;;;;;7.90;2.33;;;;;;;-145.14;100.00;70583.66;5031283;28;20433;-89
2022/11/03 01:51:08;;;;;;;7.47;2.10;;;;;;;-145.14;100.00;70583.66;5022590;28;20559;-87
2022/11/03 01:53:37;;;;;;;7.17;2.30;;;;;;;-145.14;100.00;70583.66;5011065;28;21227;-84
2022/11/03 01:56:03;;;;;;;9.17;3.00;;;;;;;-145.14;100.00;70583.66;5015823;28;20508;-88
2022/11/03 01:58:33;;;;;;;14.00;3.20;;;;;;;-145.14;100.00;70583.66;5017042;28;20446;-87
2022/11/03 02:01:00;;;;;;;12.00;2.67;;;;;;;-145.14;100.00;70583.66;5030356;28;20550;-89
2022/11/03 02:03:30;;;;;;;12.00;3.00;;;;;;;-145.14;100.00;70583.66;5031775;28;20431;-89
2022/11/03 02:05:56;;;;;;;14.80;2.67;;;;;;;-145.14;100.00;70583.66;5029433;28;20450;-87
2022/11/03 02:08:29;;;;;;;7.87;2.60;;;;;;;-145.14;100.00;70583.66;5033636;28;20442;-87
2022/11/03 02:10:56;;;;;;;10.70;3.13;;;;;;;-145.14;100.00;70583.66;5015313;28;20208;-87
2022/11/03 02:13:24;;;;;;;9.10;2.13;;;;;;;-145.14;100.00;70583.66;5005330;28;21247;-88
2022/11/03 02:15:53;;;;;;;5.83;1.90;;;;;;;-145.14;100.00;70583.66;5003144;28;20946;-88
2022/11/03 02:18:22;;;;;;;5.93;1.90;;;;;;;-145.14;100.00;70583.66;5032824;28;21004;-89
2022/11/03 02:20:56;;;;;;;13.17;3.00;;;;;;;-145.14;100.00;70583.66;5032707;28;20446;-90
2022/11/03 02:23:33;;;;;;;12.20;2.40;;;;;;;-145.14;100.00;70583.66;5015893;28;20446;-86
2022/11/03 02:26:00;;;;;;;9.40;2.83;;;;;;;-145.14;100.00;70583.66;5023256;28;20439;-88
2022/11/03 02:28:28;;;;;;;14.17;2.70;;;;;;;-145.14;100.00;70583.66;4997334;28;21031;-91
2022/11/03 02:31:06;;;;;;;13.37;3.17;;;;;;;-145.14;100.00;70583.66;5021850;28;20561;-89
2022/11/03 02:33:52;;;;;;;9.60;2.60;;;;;;;-145.14;100.00;70583.66;5028873;28;20512;-84
2022/11/03 02:36:33;;;;;;;15.50;3.73;;;;;;;-145.14;100.00;70583.66;5017651;28;20961;-87
2022/11/03 02:39:18;;;;;;;10.30;3.20;;;;;;;-145.14;100.00;70583.66;5022938;28;20512;-89
2022/11/03 02:41:46;;;;;;;14.47;2.53;;;;;;;-145.14;100.00;70583.66;5023792;28;20516;-89
2022/11/03 02:44:16;;;;;;;10.43;2.57;;;;;;;-145.14;100.00;70583.66;5024608;28;21035;-86
2022/11/03 02:46:44;;;;;;;10.70;2.67;;;;;;;-145.14;100.00;70583.66;5023532;28;21055;-83
2022/11/03 02:49:10;;;;;;;15.60;3.27;;;;;;;-145.14;100.00;70583.66;5022673;28;20548;-89
2022/11/03 02:51:35;;;;;;;9.30;2.13;;;;;;;-145.14;100.00;70583.66;5000570;28;20485;-89
2022/11/03 02:54:22;;;;;;;9.77;3.00;;;;;;;-145.14;100.00;70583.66;5035690;22;20213;31
2022/11/03 02:57:21;;;;;;;9.50;3.23;;;;;;;-145.14;100.00;70583.66;4998129;28;20329;-73
2022/11/03 03:00:01;;;;;;;8.50;2.53;;;;;;;-145.14;100.00;70583.66;5017319;28;20455;-73
2022/11/03 03:02:37;;;;;;;7.57;2.57;;;;;;;-145.14;100.00;70583.66;5011556;28;20851;-73
2022/11/03 03:05:07;;;;;;;12.60;3.00;;;;;;;-145.14;100.00;70583.66;5007599;28;20523;-72
2022/11/03 03:07:36;;;;;;;9.70;2.50;;;;;;;-145.14;100.00;70583.66;4970549;28;20537;-73
2022/11/03 03:10:39;;;;;;;12.73;2.80;;;;;;;-145.14;100.00;70583.66;4976752;28;20460;-73
2022/11/03 03:13:07;;;;;;;12.83;2.60;;;;;;;-145.14;100.00;70583.66;4974086;28;20813;-73
2022/11/03 03:15:52;;;;;;;12.07;4.00;;;;;;;-145.14;100.00;70583.66;4977314;28;20472;-72
2022/11/03 03:18:41;;;;;;;7.40;3.43;;;;;;;-145.14;100.00;70583.66;4979269;28;20440;-73
2022/11/03 03:21:15;;;;;;;7.00;2.23;;;;;;;-145.14;100.00;70583.66;4981902;28;21020;-73
2022/11/03 03:23:49;;;;;;;8.00;2.43;;;;;;;-145.14;100.00;70583.66;4980494;28;20930;-73
2022/11/03 03:26:26;;;;;;;12.80;2.50;;;;;;;-145.14;100.00;70583.66;4980518;28;20563;-74
2022/11/03 03:29:01;;;;;;;6.80;2.47;;;;;;;-145.14;100.00;70583.66;4979123;28;20468;-73
2022/11/03 03:31:31;;;;;;;13.70;3.27;;;;;;;-145.14;100.00;70583.66;4976060;28;20460;-72
2022/11/03 03:33:58;;;;;;;11.37;3.00;;;;;;;-145.14;100.00;70583.66;4982255;28;20548;-71
2022/11/03 03:36:26;;;;;;;12.60;3.03;;;;;;;-145.14;100.00;70583.66;4980114;28;20956;-73
2022/11/03 03:38:55;;;;;;;11.10;3.00;;;;;;;-145.14;100.00;70583.66;4996426;28;20810;-73
2022/11/03 03:41:24;;;;;;;10.83;2.63;;;;;;;-145.14;100.00;70583.66;4977836;28;20448;-73
2022/11/03 03:43:53;;;;;;;14.60;3.00;;;;;;;-145.14;100.00;70583.66;4978178;28;20897;-71
2022/11/03 03:46:22;;;;;;;9.03;2.70;;;;;;;-145.14;100.00;70583.66;4978571;28;20467;-74
2022/11/03 03:48:47;;;;;;;9.50;2.47;;;;;;;-145.14;100.00;70583.66;4963168;28;20459;-72
2022/11/03 03:51:15;;;;;;;7.20;2.10;;;;;;;-145.14;100.00;70583.66;4967979;28;20469;-72
2022/11/03 03:53:41;;;;;;;9.03;2.67;;;;;;;-145.14;100.00;70583.66;4976023;28;20290;-72
2022/11/03 03:56:06;;;;;;;12.17;3.93;;;;;;;-145.14;100.00;70583.66;4970024;28;20551;-73
2022/11/03 03:58:32;;;;;;;9.23;2.70;;;;;;;-145.14;100.00;70583.66;4976268;28;20202;-74
2022/11/03 04:00:57;;;;;;;10.10;2.27;;;;;;;-145.14;100.00;70583.66;4979594;28;20186;-74
2022/11/03 04:03:24;;;;;;;11.13;2.57;;;;;;;-145.14;100.00;70583.66;4970135;28;20678;-73
2022/11/03 04:05:52;;;;;;;7.73;2.10;;;;;;;-145.14;100.00;70583.66;4965346;28;20280;-74
2022/11/03 04:08:18;;;;;;;7.60;2.60;;;;;;;-145.14;100.00;70583.66;4971069;28;20440;-73
2022/11/03 04:22:15;;;;;;;13.87;3.57;;;;;;;-145.14;100.00;70583.66;4973313;28;20500;-74
2022/11/03 04:24:27;;;;;;;11.23;3.00;;;;;;;-145.14;100.00;70583.66;4973208;28;21047;-73
2022/11/03 04:26:53;;;;;;;9.13;2.63;;;;;;;-145.14;100.00;70583.66;4966075;28;20719;-74
2022/11/03 04:29:18;;;;;;;15.23;2.63;;;;;;;-145.14;100.00;70583.66;4966407;28;20281;-74
2022/11/03 04:31:44;;;;;;;9.77;3.03;;;;;;;-145.14;100.00;70583.66;4970827;28;20484;-74
2022/11/03 04:34:11;;;;;;;7.83;2.47;;;;;;;-145.14;100.00;70583.66;4967947;28;20225;-74
2022/11/03 04:36:37;;;;;;;12.27;2.77;;;;;;;-145.14;100.00;70583.66;4962857;28;20225;-74
2022/11/03 04:39:16;;;;;;;12.00;2.20;;;;;;;-145.14;100.00;70583.66;4967691;28;20519;-72
2022/11/03 04:41:41;;;;;;;7.93;2.43;;;;;;;-145.14;100.00;70583.66;4971805;28;20197;-72
2022/11/03 04:44:13;;;;;;;10.30;2.83;;;;;;;-145.14;100.00;70583.66;4990623;28;20463;-72
2022/11/03 04:46:38;;;;;;;7.90;2.30;;;;;;;-145.14;100.00;70583.66;4980838;28;20185;-72
2022/11/03 04:49:06;;;;;;;8.00;2.13;;;;;;;-145.14;100.00;70583.66;4977645;28;20836;-72
2022/11/03 04:51:33;;;;;;;8.80;2.70;;;;;;;-145.14;100.00;70583.66;4977664;28;20213;-73
2022/11/03 04:54:20;;;;;;;7.27;2.20;;;;;;;-145.14;100.00;70583.66;4980347;28;20461;-73
2022/11/03 04:56:45;;;;;;;6.27;2.00;;;;;;;-145.14;100.00;70583.66;4978779;28;20858;-72
2022/11/03 04:59:13;;;;;;;10.20;3.53;;;;;;;-145.14;100.00;70583.66;4979887;28;20942;-72
2022/11/03 05:01:39;;;;;;;8.47;2.23;;;;;;;-145.14;100.00;70583.66;4976562;28;20197;-73
2022/11/03 05:04:11;;;;;;;8.27;2.60;;;;;;;-145.14;100.00;70583.66;4978366;28;20535;-74
2022/11/03 05:06:36;;;;;;;8.17;1.93;;;;;;;-145.14;100.00;70583.66;4980071;28;20455;-73
2022/11/03 05:09:13;;;;;;;12.10;3.07;;;;;;;-145.14;100.00;70583.66;4978186;28;20440;-73
2022/11/03 05:11:41;;;;;;;8.10;1.90;;;;;;;-145.14;100.00;70583.66;4980437;28;20206;-75
2022/11/03 05:14:20;;;;;;;13.80;3.07;;;;;;;-145.14;100.00;70583.66;4976838;28;20452;-73
2022/11/03 05:16:47;;;;;;;9.80;2.87;;;;;;;-145.14;100.00;70583.66;4977145;28;20537;-73
2022/11/03 05:19:23;;;;;;;6.20;2.33;;;;;;;-145.14;100.00;70583.66;4971283;28;20543;-73
2022/11/03 05:21:50;;;;;;;11.80;2.40;;;;;;;-145.14;100.00;70583.66;4962103;28;20576;-73
2022/11/03 05:24:18;;;;;;;8.63;3.00;;;;;;;-145.14;100.00;70583.66;4974841;28;20472;-72
2022/11/03 05:26:44;;;;;;;5.87;1.80;;;;;;;-145.14;100.00;70583.66;4974904;28;20504;-73
2022/11/03 05:29:23;;;;;;;17.33;3.13;;;;;;;-145.14;100.00;70583.66;5004457;28;20449;-72
2022/11/03 05:31:51;;;;;;;11.73;3.03;;;;;;;-145.14;100.00;70583.66;4965341;28;20568;-71
2022/11/03 05:34:39;;;;;;;11.57;2.93;;;;;;;-145.14;100.00;70583.66;4971588;28;20473;-73
2022/11/03 05:37:05;;;;;;;17.00;2.87;;;;;;;-145.14;100.00;70583.66;4971182;28;20447;-74
2022/11/03 05:39:35;;;;;;;9.60;2.40;;;;;;;-145.14;100.00;70583.66;4973844;28;20822;-73
2022/11/03 05:42:01;;;;;;;11.97;2.47;;;;;;;-145.14;100.00;70583.66;4986164;28;20209;-74
2022/11/03 05:44:35;;;;;;;6.70;2.30;;;;;;;-145.14;100.00;70583.66;4980957;28;20461;-73
2022/11/03 05:47:07;;;;;;;9.83;2.20;;;;;;;-145.14;100.00;70583.66;4989122;28;20445;-73
2022/11/03 05:49:33;;;;;;;10.63;2.47;;;;;;;-145.14;100.00;70583.66;4972234;28;20440;-73
2022/11/03 05:51:59;;;;;;;9.13;2.47;;;;;;;-145.14;100.00;70583.66;4974344;28;20472;-74
2022/11/03 05:54:28;;;;;;;5.57;2.30;;;;;;;-145.14;100.00;70583.66;4980669;28;20560;-72
2022/11/03 05:56:55;;;;;;;8.40;2.83;;;;;;;-145.14;100.00;70583.66;4975904;28;20235;-73
2022/11/03 05:59:25;;;;;;;10.63;2.10;;;;;;;-145.14;100.00;70583.66;4996276;28;20450;-73
2022/11/03 06:01:52;;;;;;;5.47;2.17;;;;;;;-145.14;100.00;70583.66;4975692;28;20456;-73
2022/11/03 06:04:21;;;;;;;7.13;2.43;;;;;;;-145.14;100.00;70583.66;4978835;28;21225;-73
2022/11/03 06:06:57;;;;;;;12.70;2.60;;;;;;;-145.14;100.00;70583.66;4974657;28;20441;-72
2022/11/03 06:09:25;;;;;;;14.67;2.70;;;;;;;-145.14;100.00;70583.66;4976921;28;20527;-74
2022/11/03 06:11:55;;;;;;;9.20;2.77;;;;;;;-145.14;100.00;70583.66;4975003;28;20563;-72
2022/11/03 06:14:23;;;;;;;11.13;2.30;;;;;;;-145.14;100.00;70583.66;4966845;28;20472;-72
2022/11/03 06:16:57;;;;;;;7.73;2.23;;;;;;;-145.14;100.00;70583.66;4990727;28;22108;-73
2022/11/03 06:19:31;;;;;;;9.60;2.53;;;;;;;-145.14;100.00;70583.66;4973851;28;20452;-71
2022/11/03 06:22:04;;;;;;;6.20;2.40;;;;;;;-145.14;100.00;70583.66;4972189;28;20428;-72
2022/11/03 06:24:31;;;;;;;11.83;2.47;;;;;;;-145.14;100.00;70583.66;4980567;28;20775;-75
2022/11/03 06:26:57;;;;;;;9.53;2.60;;;;;;;-145.14;100.00;70583.66;4971388;28;20531;-72
2022/11/03 06:29:22;;;;;;;4.90;2.10;;;;;;;-145.14;100.00;70583.66;4987551;28;20820;-72
2022/11/03 06:31:50;;;;;;;7.80;2.20;;;;;;;-145.14;100.00;70583.66;4979678;28;20460;-72
2022/11/03 06:34:32;;;;;;;14.17;2.50;;;;;;;-145.14;100.00;70583.66;4970528;28;20209;-74
2022/11/03 06:37:07;;;;;;;8.73;2.10;;;;;;;-145.14;100.00;70583.66;4974517;28;21112;-73
2022/11/03 06:39:33;;;;;;;9.30;2.40;;;;;;;-145.14;100.00;70583.66;4976338;28;20444;-72
2022/11/03 06:42:09;;;;;;;9.83;4.60;;;;;;;-145.14;100.00;70583.66;4978494;28;20499;-73
2022/11/03 06:44:39;;;;;;;11.13;2.73;;;;;;;-145.14;100.00;70583.66;4978682;28;20235;-73
2022/11/03 06:47:18;;;;;;;9.63;3.10;;;;;;;-145.14;100.00;70583.66;4978417;28;20985;-73
2022/11/03 06:49:44;;;;;;;7.63;2.40;;;;;;;-145.14;100.00;70583.66;4979350;28;20438;-72
2022/11/03 06:52:28;;;;;;;6.63;2.70;;;;;;;-145.14;100.00;70583.66;4973160;28;20477;-72
2022/11/03 06:54:59;;;;;;;9.57;2.40;;;;;;;-145.14;100.00;70583.66;4965761;28;20225;-72
2022/11/03 06:57:25;;;;;;;8.33;2.43;;;;;;;-145.14;100.00;70583.66;4996285;28;21035;-71
2022/11/03 06:59:52;;;;;;;12.53;2.00;;;;;;;-145.14;100.00;70583.66;4979392;28;20448;-71
2022/11/03 07:02:51;;;;;;;7.73;2.60;;;;;;;-145.14;100.00;70583.66;4996776;28;20688;-72
2022/11/03 07:05:22;;;;;;;5.40;1.87;;;;;;;-145.14;100.00;70583.66;4982126;28;20456;-71
2022/11/03 07:07:49;;;;;;;9.60;2.20;;;;;;;-145.14;100.00;70583.66;4979088;28;20503;-72
2022/11/03 07:10:15;;;;;;;10.57;2.77;;;;;;;-145.14;100.00;70583.66;4986564;28;20808;-72
2022/11/03 07:12:41;;;;;;;8.40;2.53;;;;;;;-145.14;100.00;70583.66;4973855;28;20538;-72
2022/11/03 07:15:21;;;;;;;10.40;3.00;;;;;;;-145.14;100.00;70583.66;4983658;28;20977;-72
2022/11/03 07:17:47;;;;;;;8.60;2.57;;;;;;;-145.14;100.00;70583.66;4980618;28;20444;-72
2022/11/03 07:20:15;;;;;;;7.80;2.23;;;;;;;-145.14;100.00;70583.66;4979172;28;20945;-72
2022/11/03 07:22:42;;;;;;;7.73;2.30;;;;;;;-145.14;100.00;70583.66;4981009;28;20182;-72
2022/11/03 07:25:14;;;;;;;4.20;1.80;;;;;;;-145.14;100.00;70583.66;4978780;28;20476;-72
2022/11/03 07:27:40;;;;;;;9.70;2.73;;;;;;;-145.14;100.00;70583.66;4980348;28;21260;-72
2022/11/03 07:30:19;;;;;;;8.23;2.43;;;;;;;-145.14;100.00;70583.66;4983596;28;20484;-72
2022/11/03 07:32:46;;;;;;;10.83;2.50;;;;;;;-145.14;100.00;70583.66;4979543;28;20225;-72
2022/11/03 07:35:11;;;;;;;7.87;2.00;;;;;;;-145.14;100.00;70583.66;4971934;28;20465;-73
2022/11/03 07:37:36;;;;;;;12.40;2.97;;;;;;;-145.14;100.00;70583.66;4982108;28;20994;-72
2022/11/03 07:40:02;;;;;;;10.67;3.07;;;;;;;-145.14;100.00;70583.66;4983921;28;20201;-73
2022/11/03 07:42:27;;;;;;;20.07;3.03;;;;;;;-145.14;100.00;70583.66;4980123;28;20557;-72
2022/11/03 07:44:55;;;;;;;8.87;2.70;;;;;;;-145.14;100.00;70583.66;4982787;28;20712;-73
2022/11/03 07:47:25;;;;;;;9.37;2.27;;;;;;;-145.14;100.00;70583.66;4979840;28;20284;-73
2022/11/03 07:49:51;;;;;;;9.70;3.13;;;;;;;-145.14;100.00;70583.66;4979784;28;20472;-73
2022/11/03 07:52:21;;;;;;;8.57;2.30;;;;;;;-145.14;100.00;70583.66;4990770;28;20989;-72
2022/11/03 07:54:47;;;;;;;9.30;2.40;;;;;;;-145.14;100.00;70583.66;4976710;28;20496;-72
2022/11/03 07:57:12;;;;;;;7.30;1.83;;;;;;;-145.14;100.00;70583.66;4977265;28;20789;-72
2022/11/03 07:59:42;;;;;;;18.73;3.27;;;;;;;-145.14;100.00;70583.66;4978401;28;20200;-72
2022/11/03 08:02:36;;;;;;;9.20;2.43;;;;;;;-145.14;100.00;70583.66;4983881;28;20190;-71
2022/11/03 08:05:02;;;;;;;14.43;2.70;;;;;;;-145.14;100.00;70583.66;4985264;28;20461;-72
2022/11/03 08:07:28;;;;;;;11.10;2.53;;;;;;;-145.14;100.00;70583.66;5001258;28;20437;-72
2022/11/03 08:09:54;;;;;;;8.10;2.50;;;;;;;-145.14;100.00;70583.66;4986816;28;20437;-73
2022/11/03 08:12:19;;;;;;;7.70;1.90;;;;;;;-145.14;100.00;70583.66;4981664;28;20263;-71
2022/11/03 08:14:45;;;;;;;6.73;1.87;;;;;;;-145.14;100.00;70583.66;4983718;28;20662;-72
2022/11/03 08:17:11;;;;;;;7.90;2.20;;;;;;;-145.14;100.00;70583.66;4986066;28;20198;-73
2022/11/03 08:19:36;;;;;;;11.00;2.67;;;;;;;-145.14;100.00;70583.66;4984855;28;20272;-72
2022/11/03 08:22:02;;;;;;;7.53;2.50;;;;;;;-145.14;100.00;70583.66;4975568;28;20186;-73
2022/11/03 08:24:27;;;;;;;9.23;2.80;;;;;;;-145.14;100.00;70583.66;4984143;28;20206;-73
2022/11/03 08:26:53;;;;;;;12.70;2.87;;;;;;;-145.14;100.00;70583.66;4985383;28;20189;-73
2022/11/03 08:29:18;;;;;;;8.10;2.37;;;;;;;-145.14;100.00;70583.66;4981632;28;20241;-73
2022/11/03 08:31:44;;;;;;;9.27;2.40;;;;;;;-145.14;100.00;70583.66;4971514;28;20213;-73
2022/11/03 08:34:10;;;;;;;9.27;2.90;;;;;;;-145.14;100.00;70583.66;4976947;28;20272;-73
2022/11/03 08:36:36;;;;;;;10.47;2.50;;;;;;;-145.14;100.00;70583.66;4986143;28;20235;-72
2022/11/03 08:39:02;;;;;;;7.63;2.50;;;;;;;-145.14;100.00;70583.66;4983357;28;20437;-73
2022/11/03 08:41:27;;;;;;;8.40;2.70;;;;;;;-145.14;100.00;70583.66;4984749;28;20422;-72
2022/11/03 08:43:53;;;;;;;9.23;2.70;;;;;;;-145.14;100.00;70583.66;4979700;28;20499;-72
2022/11/03 08:46:18;;;;;;;9.13;2.43;;;;;;;-145.14;100.00;70583.66;4978960;28;20189;-73
2022/11/03 08:48:45;;;;;;;10.67;2.93;;;;;;;-145.14;100.00;70583.66;4971873;28;20247;-73
2022/11/03 08:51:12;;;;;;;7.33;2.40;;;;;;;-145.14;100.00;70583.66;4977723;28;20552;-72
2022/11/03 08:53:38;;;;;;;10.57;2.87;;;;;;;-145.14;100.00;70583.66;4994451;28;20436;-74
2022/11/03 08:56:04;;;;;;;13.70;3.00;;;;;;;-145.14;100.00;70583.66;4979722;28;20522;-73
2022/11/03 08:58:30;;;;;;;10.77;3.50;;;;;;;-145.14;100.00;70583.66;4976727;28;20480;-74
2022/11/03 09:00:56;;;;;;;5.93;2.27;;;;;;;-145.14;100.00;70583.66;4974741;28;20532;-72
2022/11/03 09:03:21;;;;;;;9.03;2.60;;;;;;;-145.14;100.00;70583.66;4978731;28;20221;-72
2022/11/03 09:05:47;;;;;;;9.27;2.43;;;;;;;-145.14;100.00;70583.66;4982037;28;20222;-73
2022/11/03 09:08:12;;;;;;;8.80;2.40;;;;;;;-145.14;100.00;70583.66;4983458;28;20205;-72
2022/11/03 09:10:38;;;;;;;11.13;3.33;;;;;;;-145.14;100.00;70583.66;4979200;28;22170;-72
2022/11/03 09:13:04;;;;;;;10.00;2.53;;;;;;;-145.14;100.00;70583.66;4999094;28;20189;-73
2022/11/03 09:15:30;;;;;;;10.87;2.57;;;;;;;-145.14;100.00;70583.66;4980796;28;20209;-71
2022/11/03 09:17:55;;;;;;;11.83;2.70;;;;;;;-145.14;100.00;70583.66;4982664;28;20945;-72
2022/11/03 09:20:21;;;;;;;5.20;2.20;;;;;;;-145.14;100.00;70583.66;4982993;28;20437;-72
2022/11/03 09:22:47;;;;;;;6.97;2.37;;;;;;;-145.14;100.00;70583.66;4981762;28;20326;-73
2022/11/03 09:25:12;;;;;;;9.63;2.60;;;;;;;-145.14;100.00;70583.66;4981350;28;20222;-72
2022/11/03 09:27:37;;;;;;;10.97;2.63;;;;;;;-145.14;100.00;70583.66;4983069;28;20791;-73
2022/11/03 09:30:04;;;;;;;7.47;2.83;;;;;;;-145.14;100.00;70583.66;4984248;28;20193;-72
2022/11/03 09:32:30;;;;;;;8.67;2.47;;;;;;;-145.14;100.00;70583.66;4981149;28;20412;-72
2022/11/03 09:34:55;;;;;;;13.50;4.00;;;;;;;-145.14;100.00;70583.66;4986608;28;20937;-72
2022/11/03 09:37:21;;;;;;;7.37;2.57;;;;;;;-145.14;100.00;70583.66;4998576;28;20205;-73
2022/11/03 09:39:47;;;;;;;9.90;2.73;;;;;;;-145.14;100.00;70583.66;4983150;28;20217;-73
2022/11/03 09:42:14;;;;;;;12.33;2.90;;;;;;;-145.14;100.00;70583.66;4979011;28;20454;-72
2022/11/03 09:44:40;;;;;;;8.30;2.40;;;;;;;-145.14;100.00;70583.66;4978786;28;20206;-73
2022/11/03 09:47:05;;;;;;;8.40;2.77;;;;;;;-145.14;100.00;70583.66;4985591;28;20464;-74
2022/11/03 09:49:32;;;;;;;7.57;2.50;;;;;;;-145.14;100.00;70583.66;4984284;28;20216;-74
2022/11/03 09:52:03;;;;;;;8.20;2.13;;;;;;;-145.14;100.00;70583.66;4982032;28;20202;-74
2022/11/03 09:54:29;;;;;;;13.83;2.83;;;;;;;-145.14;100.00;70583.66;4984674;28;21065;-73
2022/11/03 09:57:08;;;;;;;12.17;3.43;;;;;;;-145.14;100.00;70583.66;4986450;28;20440;-73
2022/11/03 09:59:36;;;;;;;13.20;3.40;;;;;;;-145.14;100.00;70583.66;4983880;28;20467;-72
2022/11/03 10:02:01;;;;;;;6.10;2.37;;;;;;;-145.14;100.00;70583.66;4979169;28;20425;-73
2022/11/03 10:04:28;;;;;;;9.80;2.60;;;;;;;-145.14;100.00;70583.66;4980434;28;20464;-74
2022/11/03 10:06:57;;;;;;;8.80;2.67;;;;;;;-145.14;100.00;70583.66;4981924;28;20248;-73
2022/11/03 10:09:25;;;;;;;14.07;3.30;;;;;;;-145.14;100.00;70583.66;4976203;28;20448;-73
2022/11/03 10:11:53;;;;;;;6.87;2.60;;;;;;;-145.14;100.00;70583.66;4982472;28;20468;-74
2022/11/03 10:14:19;;;;;;;12.60;2.63;;;;;;;-145.14;100.00;70583.66;4982762;28;20473;-73
2022/11/03 10:16:54;;;;;;;11.50;3.00;;;;;;;-145.14;100.00;70583.66;4985774;28;21008;-74
2022/11/03 10:19:19;;;;;;;10.03;2.90;;;;;;;-145.14;100.00;70583.66;4969528;28;20541;-73
2022/11/03 10:21:45;;;;;;;10.60;2.83;;;;;;;-145.14;100.00;70583.66;4973518;28;20524;-74
2022/11/03 10:24:13;;;;;;;16.47;3.50;;;;;;;-145.14;100.00;70583.66;4982126;28;20206;-72
2022/11/03 10:26:57;;;;;;;11.10;2.53;;;;;;;-145.14;100.00;70583.66;4977020;28;20186;-73
2022/11/03 10:29:25;;;;;;;11.60;2.73;;;;;;;-145.14;100.00;70583.66;4982278;28;20441;-72
2022/11/03 10:31:53;;;;;;;9.97;2.40;;;;;;;-145.14;100.00;70583.66;4982052;28;20530;-73
2022/11/03 10:34:32;;;;;;;12.50;3.23;;;;;;;-145.14;100.00;70583.66;4983679;28;20484;-73
2022/11/03 10:37:16;;;;;;;13.43;2.83;;;;;;;-145.14;100.00;70583.66;4998442;28;20477;-73
2022/11/03 10:39:42;;;;;;;10.87;3.47;;;;;;;-145.14;100.00;70583.66;4982720;28;20524;-74
2022/11/03 10:42:17;;;;;;;17.43;2.70;;;;;;;-145.14;100.00;70583.66;4995513;28;20559;-73
2022/11/03 10:44:42;;;;;;;6.80;2.70;;;;;;;-145.14;100.00;70583.66;4975840;28;20460;-74
2022/11/03 10:47:22;;;;;;;12.93;3.17;;;;;;;-145.14;100.00;70583.66;4973550;28;20441;-74
2022/11/03 10:49:48;;;;;;;7.20;3.13;;;;;;;-145.14;100.00;70583.66;4980664;28;20190;-72
2022/11/03 10:52:25;;;;;;;10.23;2.50;;;;;;;-145.14;100.00;70583.66;4977517;28;20480;-74
2022/11/03 10:54:53;;;;;;;14.93;2.47;;;;;;;-145.14;100.00;70583.66;4980266;28;20216;-73
2022/11/03 10:57:19;;;;;;;5.67;2.10;;;;;;;-145.14;100.00;70583.66;4978852;28;20436;-74
2022/11/03 10:59:47;;;;;;;9.20;2.10;;;;;;;-145.14;100.00;70583.66;4994183;28;20472;-74
2022/11/03 11:02:30;;;;;;;9.30;2.80;;;;;;;-145.14;100.00;70583.66;4985117;28;21049;-74
2022/11/03 11:04:59;;;;;;;10.20;3.03;;;;;;;-145.14;100.00;70583.66;4976807;28;20464;-73
2022/11/03 11:07:35;;;;;;;10.90;3.73;;;;;;;-145.14;100.00;70583.66;4995822;28;20562;-74
2022/11/03 11:10:24;;;;;;;15.27;3.30;;;;;;;-145.14;100.00;70583.66;5000830;28;20891;-74
2022/11/03 11:13:17;;;;;;;10.97;2.40;;;;;;;-145.14;100.00;70583.66;4982968;28;20476;-74
2022/11/03 11:15:53;;;;;;;9.17;2.80;;;;;;;-145.14;100.00;70583.66;4973962;28;20457;-73
2022/11/03 11:18:28;;;;;;;12.27;2.20;;;;;;;-145.14;100.00;70583.66;4972475;28;20580;-72
2022/11/03 11:21:18;;;;;;;11.43;2.47;;;;;;;-145.14;100.00;70583.66;4974328;28;20958;-74
2022/11/03 11:23:44;;;;;;;6.83;2.30;;;;;;;-145.14;100.00;70583.66;4978796;28;20445;-74
2022/11/03 11:26:09;;;;;;;14.70;2.90;;;;;;;-145.14;100.00;70583.66;4975838;28;20819;-74
2022/11/03 11:28:35;;;;;;;10.67;2.70;;;;;;;-145.14;100.00;70583.66;4981168;28;20439;-73
2022/11/03 11:34:35;;;;;;;8.30;2.60;;;;;;;-145.14;100.00;70583.66;4984982;28;20515;-74
2022/11/03 11:37:01;;;;;;;8.00;2.27;;;;;;;-145.14;100.00;70583.66;4984644;28;20451;-74
2022/11/03 11:39:26;;;;;;;7.90;2.30;;;;;;;-145.14;100.00;70583.66;4982328;28;20449;-74